Time;durP1;ratioP1;P1;durP2;ratioP2;P2;SDS_P1;SDS_P2;PMS_P1;PMS_P2;Temp;Humidity;BMP_temperature;BMP_pressure;BME280_temperature;BME280_humidity;BME280_pressure;Samples;Min_cycle;Max_cycle;Signal;HPM_P1;HPM_P2
2022/01/04 00:00:11;;;;;;;0.00;0.00;;;10.10;99.90;;;;;;4994817;28;20084;-66
2022/01/04 00:02:37;;;;;;;0.00;0.00;;;10.10;99.90;;;;;;5012555;28;20029;-66
2022/01/04 00:05:04;;;;;;;0.05;0.05;;;10.20;99.90;;;;;;5011052;28;20437;-66
2022/01/04 00:07:32;;;;;;;0.30;0.30;;;10.20;99.90;;;;;;5011219;28;20037;-66
2022/01/04 00:09:58;;;;;;;0.00;0.00;;;10.20;99.90;;;;;;5012078;28;20042;-66
2022/01/04 00:15:09;;;;;;;0.00;0.00;;;10.30;99.90;;;;;;5011940;28;20085;-66
2022/01/04 00:17:35;;;;;;;0.00;0.00;;;10.20;99.90;;;;;;5011203;28;20053;-66
2022/01/04 00:20:02;;;;;;;0.00;0.00;;;10.20;99.90;;;;;;5011081;28;20038;-66
2022/01/04 00:22:27;;;;;;;0.10;0.10;;;10.30;99.90;;;;;;5012108;28;20045;-66
2022/01/04 00:24:53;;;;;;;0.00;0.00;;;10.20;99.90;;;;;;5012273;28;20033;-66
2022/01/04 00:27:19;;;;;;;0.00;0.00;;;10.20;99.90;;;;;;5010705;28;20034;-66
2022/01/04 00:29:45;;;;;;;0.10;0.10;;;10.30;99.90;;;;;;5011640;28;20041;-66
2022/01/04 00:32:10;;;;;;;0.22;0.10;;;10.30;99.90;;;;;;5012031;28;20474;-67
2022/01/04 00:34:36;;;;;;;0.50;0.50;;;10.30;99.90;;;;;;5010675;28;20030;-66
2022/01/04 00:37:02;;;;;;;0.13;0.13;;;10.30;99.90;;;;;;5010551;28;20115;-66
2022/01/04 00:39:28;;;;;;;0.00;0.00;;;10.30;99.90;;;;;;5011587;28;20022;-66
2022/01/04 00:41:57;;;;;;;0.00;0.00;;;10.30;99.90;;;;;;5011934;28;20065;-66
2022/01/04 00:44:22;;;;;;;30.70;1.17;;;10.30;99.90;;;;;;5011711;28;20025;-66
2022/01/04 00:46:48;;;;;;;0.00;0.00;;;10.30;99.90;;;;;;5011827;28;20046;-66
2022/01/04 00:49:17;;;;;;;0.00;0.00;;;10.30;99.90;;;;;;5011787;28;20471;-66
2022/01/04 00:51:47;;;;;;;0.38;0.38;;;10.30;99.90;;;;;;5011595;28;20061;-66
2022/01/04 00:54:13;;;;;;;0.00;0.00;;;10.30;99.90;;;;;;5011787;28;20026;-66
2022/01/04 00:56:40;;;;;;;6.13;0.85;;;10.40;99.90;;;;;;5010645;28;20034;-66
2022/01/04 00:59:06;;;;;;;0.00;0.00;;;10.40;99.90;;;;;;5011945;28;20068;-64
2022/01/04 01:01:33;;;;;;;0.00;0.00;;;10.40;99.90;;;;;;5011946;28;20479;-65
2022/01/04 01:03:59;;;;;;;0.00;0.00;;;10.40;99.90;;;;;;5011734;28;20034;-65
2022/01/04 01:06:26;;;;;;;0.00;0.00;;;10.50;99.90;;;;;;5010595;28;20759;-65
2022/01/04 01:08:51;;;;;;;0.47;0.20;;;10.50;99.90;;;;;;4994286;28;20438;-65
2022/01/04 01:11:18;;;;;;;0.00;0.00;;;10.50;99.90;;;;;;5010325;28;20121;-66
2022/01/04 01:13:45;;;;;;;0.25;0.25;;;10.50;99.90;;;;;;5010122;28;20038;-65
2022/01/04 01:16:11;;;;;;;0.00;0.00;;;10.50;99.90;;;;;;5010413;28;20076;-65
2022/01/04 01:18:38;;;;;;;0.00;0.00;;;10.50;99.90;;;;;;5011726;28;20367;-65
2022/01/04 01:21:06;;;;;;;0.00;0.00;;;10.50;99.90;;;;;;5010343;28;20035;-65
2022/01/04 01:23:33;;;;;;;0.00;0.00;;;10.50;99.90;;;;;;5011723;28;20053;-65
2022/01/04 01:25:59;;;;;;;0.28;0.28;;;10.50;99.90;;;;;;5011393;28;20549;-65
2022/01/04 01:28:25;;;;;;;0.15;0.15;;;10.50;99.90;;;;;;5013949;28;20613;-65
2022/01/04 01:30:52;;;;;;;0.00;0.00;;;10.50;99.90;;;;;;5013816;28;20042;-65
2022/01/04 01:33:18;;;;;;;0.00;0.00;;;10.50;99.90;;;;;;5015048;28;20034;-65
2022/01/04 01:35:45;;;;;;;0.00;0.00;;;10.50;99.90;;;;;;5015172;28;20083;-65
2022/01/04 01:38:14;;;;;;;0.00;0.00;;;10.60;99.90;;;;;;5013940;28;20128;-65
2022/01/04 01:40:41;;;;;;;0.00;0.00;;;10.50;99.90;;;;;;5013452;28;20176;-65
2022/01/04 01:43:08;;;;;;;1.27;0.75;;;10.60;99.90;;;;;;5014640;28;20061;-65
2022/01/04 01:45:34;;;;;;;0.77;0.47;;;10.60;99.90;;;;;;5013549;28;20107;-64
2022/01/04 01:48:01;;;;;;;0.00;0.00;;;10.50;99.90;;;;;;5014576;28;20089;-65
2022/01/04 01:50:27;;;;;;;0.10;0.10;;;10.60;99.90;;;;;;5013435;28;20030;-65
2022/01/04 01:52:54;;;;;;;0.00;0.00;;;10.60;99.90;;;;;;5014741;28;20069;-65
2022/01/04 01:55:23;;;;;;;0.65;0.65;;;10.60;99.90;;;;;;5013915;28;20084;-65
2022/01/04 01:57:50;;;;;;;0.05;0.05;;;10.60;99.90;;;;;;5013498;28;20112;-65
2022/01/04 02:00:21;;;;;;;0.30;0.30;;;10.70;99.90;;;;;;5014518;28;20133;-66
2022/01/04 02:02:47;;;;;;;0.00;0.00;;;10.60;99.90;;;;;;5014498;28;20038;-66
2022/01/04 02:05:13;;;;;;;0.00;0.00;;;10.60;99.90;;;;;;5013453;28;20044;-66
2022/01/04 02:07:41;;;;;;;0.00;0.00;;;10.70;99.90;;;;;;5013182;28;20116;-66
2022/01/04 02:10:08;;;;;;;0.00;0.00;;;10.60;99.90;;;;;;5014618;28;20034;-66
2022/01/04 02:12:49;;;;;;;0.00;0.00;;;10.60;99.90;;;;;;5012891;28;20064;-66
2022/01/04 02:15:23;;;;;;;0.00;0.00;;;10.70;99.90;;;;;;5013157;28;20041;-66
2022/01/04 02:17:49;;;;;;;0.03;0.03;;;10.70;99.90;;;;;;5013941;28;20029;-64
2022/01/04 02:20:16;;;;;;;0.00;0.00;;;10.70;99.90;;;;;;5014463;28;20085;-66
2022/01/04 02:22:42;;;;;;;0.00;0.00;;;10.70;99.90;;;;;;5012961;28;20030;-66
2022/01/04 02:25:09;;;;;;;0.00;0.00;;;10.70;99.90;;;;;;5013866;28;20541;-66
2022/01/04 02:27:38;;;;;;;0.13;0.13;;;10.60;99.90;;;;;;5014303;28;20064;-66
2022/01/04 02:30:12;;;;;;;0.00;0.00;;;10.60;99.90;;;;;;5014280;28;20033;-66
2022/01/04 02:32:38;;;;;;;0.28;0.28;;;10.70;99.90;;;;;;5014022;28;20069;-66
2022/01/04 02:35:04;;;;;;;0.00;0.00;;;10.60;99.90;;;;;;5013818;28;20482;-66
2022/01/04 02:37:32;;;;;;;0.10;0.10;;;10.60;99.90;;;;;;5012556;28;20126;-66
2022/01/04 02:39:58;;;;;;;0.00;0.00;;;10.60;99.90;;;;;;5028968;28;20601;-66
2022/01/04 02:42:24;;;;;;;0.55;0.55;;;10.60;99.90;;;;;;5012363;28;20066;-64
2022/01/04 02:44:51;;;;;;;0.00;0.00;;;10.50;99.90;;;;;;5013602;28;20034;-64
2022/01/04 02:47:17;;;;;;;0.15;0.15;;;10.50;99.90;;;;;;5012271;28;20042;-65
2022/01/04 02:49:43;;;;;;;0.00;0.00;;;10.60;99.90;;;;;;5012632;28;20076;-65
2022/01/04 02:52:09;;;;;;;0.00;0.00;;;10.50;99.90;;;;;;5012259;28;20463;-65
2022/01/04 02:54:35;;;;;;;0.00;0.00;;;10.50;99.90;;;;;;5013318;28;20064;-66
2022/01/04 02:57:01;;;;;;;0.00;0.00;;;10.60;99.90;;;;;;5012405;28;20506;-65
2022/01/04 02:59:27;;;;;;;0.08;0.08;;;10.50;99.90;;;;;;5013455;28;20116;-65
2022/01/04 03:01:53;;;;;;;6.78;1.85;;;10.50;99.90;;;;;;5013242;28;20110;-65
2022/01/04 03:04:20;;;;;;;0.00;0.00;;;10.60;99.90;;;;;;5013536;28;20046;-65
2022/01/04 03:06:46;;;;;;;0.03;0.03;;;10.60;99.90;;;;;;5012206;28;20037;-66
2022/01/04 03:09:12;;;;;;;0.10;0.10;;;10.60;99.90;;;;;;5013177;28;20034;-65
2022/01/04 03:11:38;;;;;;;0.10;0.10;;;10.50;99.90;;;;;;5013161;28;20434;-66
2022/01/04 03:14:04;;;;;;;0.10;0.10;;;10.60;99.90;;;;;;5011968;28;20500;-66
2022/01/04 03:16:30;;;;;;;0.00;0.00;;;10.50;99.90;;;;;;5013152;28;20037;-66
2022/01/04 03:19:10;;;;;;;0.08;0.08;;;10.50;99.90;;;;;;5011687;28;20037;-65
2022/01/04 03:21:43;;;;;;;0.68;0.38;;;10.50;99.90;;;;;;5013242;28;20033;-66
2022/01/04 03:24:14;;;;;;;0.00;0.00;;;10.50;99.90;;;;;;5011510;28;20116;-66
2022/01/04 03:26:41;;;;;;;0.00;0.00;;;10.50;99.90;;;;;;5011804;28;20536;-65
2022/01/04 03:29:09;;;;;;;0.00;0.00;;;10.50;99.90;;;;;;5011672;28;20467;-66
2022/01/04 03:31:35;;;;;;;0.00;0.00;;;10.50;99.90;;;;;;5012836;28;20664;-66
2022/01/04 03:34:02;;;;;;;0.10;0.10;;;10.50;99.90;;;;;;5011453;28;20087;-66
2022/01/04 03:36:28;;;;;;;0.10;0.10;;;10.50;99.90;;;;;;5011745;28;20030;-65
2022/01/04 03:38:56;;;;;;;0.65;0.55;;;10.50;99.90;;;;;;5011638;28;20396;-66
2022/01/04 03:41:25;;;;;;;0.00;0.00;;;10.40;99.90;;;;;;5011348;28;20030;-66
2022/01/04 03:43:51;;;;;;;0.00;0.00;;;10.40;99.90;;;;;;5011143;28;20037;-66
2022/01/04 03:46:18;;;;;;;0.00;0.00;;;10.40;99.90;;;;;;5012600;28;20113;-66
2022/01/04 03:48:45;;;;;;;0.00;0.00;;;10.50;99.90;;;;;;5011945;28;20050;-66
2022/01/04 03:51:11;;;;;;;0.00;0.00;;;10.50;99.90;;;;;;5011399;28;20034;-66
2022/01/04 03:53:37;;;;;;;0.03;0.03;;;10.40;99.90;;;;;;5012425;28;20045;-66
2022/01/04 03:56:04;;;;;;;0.00;0.00;;;10.40;99.90;;;;;;5011275;28;20040;-66
2022/01/04 03:58:30;;;;;;;0.00;0.00;;;10.40;99.90;;;;;;5011460;28;20445;-66
2022/01/04 04:00:56;;;;;;;0.10;0.10;;;10.50;99.90;;;;;;5012435;28;20582;-66
2022/01/04 04:03:22;;;;;;;0.05;0.05;;;10.40;99.90;;;;;;5012366;28;20037;-66
2022/01/04 04:05:49;;;;;;;0.00;0.00;;;10.40;99.90;;;;;;5012629;28;20030;-66
2022/01/04 04:08:16;;;;;;;0.00;0.00;;;10.40;99.90;;;;;;5012375;28;20030;-67
2022/01/04 04:10:41;;;;;;;0.00;0.00;;;10.40;99.90;;;;;;5011218;28;20029;-67
2022/01/04 04:13:07;;;;;;;0.00;0.00;;;10.40;99.90;;;;;;5010702;28;20034;-66
2022/01/04 04:15:34;;;;;;;0.00;0.00;;;10.40;99.90;;;;;;5012463;28;20033;-66
2022/01/04 04:18:00;;;;;;;0.00;0.00;;;10.40;99.90;;;;;;5027064;28;20026;-66
2022/01/04 04:20:26;;;;;;;0.10;0.10;;;10.40;99.90;;;;;;5011025;28;20092;-66
2022/01/04 04:22:51;;;;;;;0.00;0.00;;;10.40;99.90;;;;;;5011969;28;20088;-66
2022/01/04 04:25:17;;;;;;;0.52;0.52;;;10.40;99.90;;;;;;5012106;28;20029;-66
2022/01/04 04:27:43;;;;;;;0.00;0.00;;;10.40;99.90;;;;;;5012283;28;20140;-66
2022/01/04 04:30:10;;;;;;;0.05;0.05;;;10.30;99.90;;;;;;5012012;28;20116;-66
2022/01/04 04:32:36;;;;;;;0.00;0.00;;;10.30;99.90;;;;;;4994334;28;20030;-66
2022/01/04 04:35:04;;;;;;;0.00;0.00;;;10.40;99.90;;;;;;5011656;28;20022;-66
2022/01/04 04:37:30;;;;;;;0.00;0.00;;;10.40;99.90;;;;;;5010607;28;20026;-66
2022/01/04 04:39:55;;;;;;;0.30;0.30;;;10.30;99.90;;;;;;5010378;28;20535;-66
2022/01/04 04:42:22;;;;;;;0.35;0.35;;;10.30;99.90;;;;;;5011942;28;20060;-66
2022/01/04 04:44:48;;;;;;;1.42;1.33;;;10.30;99.90;;;;;;5011711;28;20034;-66
2022/01/04 04:47:13;;;;;;;0.00;0.00;;;10.30;99.90;;;;;;5010313;28;20052;-66
2022/01/04 04:49:39;;;;;;;0.00;0.00;;;10.30;99.90;;;;;;5011902;28;20022;-66
2022/01/04 04:52:05;;;;;;;0.00;0.00;;;10.30;99.90;;;;;;5011328;28;20065;-66
2022/01/04 04:54:31;;;;;;;0.20;0.20;;;10.30;99.90;;;;;;5011591;28;20036;-67
2022/01/04 04:56:57;;;;;;;0.65;0.52;;;10.20;99.90;;;;;;5013922;28;20029;-66
2022/01/04 04:59:23;;;;;;;0.55;0.55;;;10.20;99.90;;;;;;5031181;28;20026;-66
2022/01/04 05:01:49;;;;;;;0.10;0.10;;;10.20;99.90;;;;;;5034878;28;20412;-66
2022/01/04 05:04:14;;;;;;;0.22;0.22;;;10.20;99.90;;;;;;5033786;28;20040;-65
2022/01/04 05:06:40;;;;;;;0.00;0.00;;;10.20;99.90;;;;;;5034122;28;20124;-66
2022/01/04 05:09:06;;;;;;;0.00;0.00;;;10.20;99.90;;;;;;5035232;28;20073;-65
2022/01/04 05:11:32;;;;;;;0.00;0.00;;;10.20;99.90;;;;;;5033769;28;20044;-66
2022/01/04 05:13:58;;;;;;;0.00;0.00;;;10.20;99.90;;;;;;5034877;28;20116;-65
2022/01/04 05:16:24;;;;;;;0.00;0.00;;;10.20;99.90;;;;;;5035638;28;20025;-64
2022/01/04 05:18:54;;;;;;;0.00;0.00;;;10.20;99.90;;;;;;5035044;28;20060;-67
2022/01/04 05:21:20;;;;;;;0.00;0.00;;;10.20;99.90;;;;;;5035580;28;20060;-67
2022/01/04 05:23:45;;;;;;;0.13;0.13;;;10.20;99.90;;;;;;5035159;28;20072;-67
2022/01/04 05:26:11;;;;;;;0.10;0.10;;;10.20;99.90;;;;;;5033827;28;20108;-66
2022/01/04 05:28:38;;;;;;;0.00;0.00;;;10.20;99.90;;;;;;5017051;28;20037;-66
2022/01/04 05:31:04;;;;;;;0.32;0.22;;;10.20;99.90;;;;;;5034417;28;20124;-66
2022/01/04 05:33:30;;;;;;;0.85;0.85;;;10.20;99.90;;;;;;5033795;28;20109;-65
2022/01/04 05:35:56;;;;;;;0.00;0.00;;;10.10;99.90;;;;;;5034532;28;20060;-66
2022/01/04 05:38:22;;;;;;;0.00;0.00;;;10.20;99.90;;;;;;5033356;28;20033;-67
2022/01/04 05:40:47;;;;;;;0.00;0.00;;;10.20;99.90;;;;;;5035050;28;20029;-67
2022/01/04 05:43:14;;;;;;;0.00;0.00;;;10.20;99.90;;;;;;5016681;28;20033;-66
2022/01/04 05:45:40;;;;;;;0.10;0.10;;;10.20;99.90;;;;;;5033489;28;20057;-66
2022/01/04 05:48:06;;;;;;;0.00;0.00;;;10.20;99.90;;;;;;5034205;28;20042;-66
2022/01/04 05:50:34;;;;;;;0.00;0.00;;;10.20;99.90;;;;;;5033603;28;20033;-66
2022/01/04 05:53:01;;;;;;;0.00;0.00;;;10.20;99.90;;;;;;5033090;28;20037;-67
2022/01/04 05:55:26;;;;;;;0.00;0.00;;;10.20;99.90;;;;;;5033464;28;20030;-67
2022/01/04 05:57:52;;;;;;;0.10;0.10;;;10.20;99.90;;;;;;5034184;28;20112;-65
2022/01/04 06:00:18;;;;;;;0.30;0.30;;;10.20;99.90;;;;;;5033222;28;20026;-66
2022/01/04 06:02:44;;;;;;;0.00;0.00;;;10.20;99.90;;;;;;5034618;28;20120;-66
2022/01/04 06:05:13;;;;;;;0.00;0.00;;;10.20;99.90;;;;;;5034355;28;20486;-66
2022/01/04 06:07:39;;;;;;;0.05;0.05;;;10.20;99.90;;;;;;5032625;28;20493;-66
2022/01/04 06:10:08;;;;;;;0.00;0.00;;;10.20;99.90;;;;;;5032868;28;20079;-66
2022/01/04 06:15:14;;;;;;;0.00;0.00;;;10.30;99.90;;;;;;5016992;28;20036;-65
2022/01/04 06:17:50;;;;;;;0.08;0.08;;;10.30;99.90;;;;;;5034252;28;20029;-65
2022/01/04 06:20:19;;;;;;;0.00;0.00;;;10.30;99.90;;;;;;5032394;28;20033;-66
2022/01/04 06:22:45;;;;;;;0.00;0.00;;;10.30;99.90;;;;;;5034038;28;20395;-65
2022/01/04 06:25:14;;;;;;;0.00;0.00;;;10.30;99.90;;;;;;5032831;28;20135;-65
2022/01/04 06:27:50;;;;;;;0.10;0.10;;;10.30;99.90;;;;;;5032761;28;20069;-65
2022/01/04 06:30:22;;;;;;;0.00;0.00;;;10.30;99.90;;;;;;5032645;28;20478;-65
2022/01/04 06:32:48;;;;;;;0.22;0.22;;;10.30;99.90;;;;;;5033662;28;20128;-65
2022/01/04 06:35:14;;;;;;;0.10;0.10;;;10.40;99.90;;;;;;5033584;28;20108;-66
2022/01/04 06:37:41;;;;;;;0.00;0.00;;;10.40;99.90;;;;;;5032676;28;20034;-66
2022/01/04 06:40:12;;;;;;;0.10;0.10;;;10.40;99.90;;;;;;5032243;28;20509;-66
2022/01/04 06:42:41;;;;;;;0.00;0.00;;;10.40;99.90;;;;;;5033904;28;20120;-65
2022/01/04 06:45:08;;;;;;;0.00;0.00;;;10.40;99.90;;;;;;5033518;28;20042;-66
2022/01/04 06:47:34;;;;;;;0.00;0.00;;;10.40;99.90;;;;;;5015567;28;20041;-65
2022/01/04 06:50:01;;;;;;;0.15;0.15;;;10.40;99.90;;;;;;5031957;28;20379;-66
2022/01/04 06:52:27;;;;;;;0.00;0.00;;;10.40;99.90;;;;;;5031902;28;20033;-66
2022/01/04 06:54:53;;;;;;;0.10;0.10;;;10.40;99.90;;;;;;5024493;28;20779;-67
2022/01/04 06:57:18;;;;;;;0.00;0.00;;;10.50;99.90;;;;;;5013514;28;20108;-66
2022/01/04 06:59:44;;;;;;;0.00;0.00;;;10.50;99.90;;;;;;5013508;28;20522;-67
2022/01/04 07:02:10;;;;;;;0.00;0.00;;;10.50;99.90;;;;;;5013252;28;20042;-65
2022/01/04 07:04:39;;;;;;;0.00;0.00;;;10.40;99.90;;;;;;5013614;28;20057;-66
2022/01/04 07:07:08;;;;;;;1.60;1.08;;;10.50;99.90;;;;;;5011651;28;20030;-67
2022/01/04 07:09:33;;;;;;;0.03;0.03;;;10.50;99.90;;;;;;5012262;28;20036;-66
2022/01/04 07:11:59;;;;;;;0.00;0.00;;;10.40;99.90;;;;;;5013408;28;20034;-66
2022/01/04 07:14:25;;;;;;;0.68;0.68;;;10.50;99.90;;;;;;5013352;28;20049;-65
2022/01/04 07:16:51;;;;;;;0.00;0.00;;;10.40;99.90;;;;;;4995603;28;20378;-65
2022/01/04 07:19:17;;;;;;;0.08;0.08;;;10.50;99.90;;;;;;4995682;28;20506;-67
2022/01/04 07:21:43;;;;;;;0.00;0.00;;;10.50;99.90;;;;;;5012067;28;20038;-67
2022/01/04 07:24:12;;;;;;;0.00;0.00;;;10.50;99.90;;;;;;5012217;28;20042;-67
2022/01/04 07:26:38;;;;;;;0.00;0.00;;;10.50;99.90;;;;;;5017162;28;20076;-67
2022/01/04 07:29:03;;;;;;;0.03;0.03;;;10.50;99.90;;;;;;5024225;28;20465;-67
2022/01/04 07:31:29;;;;;;;0.00;0.00;;;10.50;99.90;;;;;;5030676;28;20033;-66
2022/01/04 07:33:56;;;;;;;0.00;0.00;;;10.50;99.90;;;;;;5015830;28;20418;-66
2022/01/04 07:36:22;;;;;;;0.10;0.10;;;10.50;99.90;;;;;;5011383;28;20030;-66
2022/01/04 07:38:47;;;;;;;0.10;0.10;;;10.50;99.90;;;;;;4995241;28;20445;-66
2022/01/04 07:41:13;;;;;;;0.03;0.03;;;10.50;99.90;;;;;;5011534;28;20457;-66
2022/01/04 07:43:39;;;;;;;0.00;0.00;;;10.50;99.90;;;;;;5011638;28;20462;-66
2022/01/04 07:46:05;;;;;;;0.00;0.00;;;10.60;99.90;;;;;;5012803;28;20468;-66
2022/01/04 07:48:32;;;;;;;0.08;0.08;;;10.60;99.90;;;;;;5011150;28;20045;-66
2022/01/04 07:50:59;;;;;;;0.00;0.00;;;10.60;99.90;;;;;;5011351;28;20052;-65
2022/01/04 07:53:26;;;;;;;0.00;0.00;;;10.60;99.90;;;;;;5012528;28;20080;-67
2022/01/04 07:55:52;;;;;;;0.00;0.00;;;10.60;99.90;;;;;;5012708;28;20117;-66
2022/01/04 07:58:18;;;;;;;0.00;0.00;;;10.60;99.90;;;;;;5012389;28;20037;-66
2022/01/04 08:00:44;;;;;;;0.00;0.00;;;10.60;99.90;;;;;;5011473;28;20117;-67
2022/01/04 08:03:10;;;;;;;0.25;0.20;;;10.60;99.90;;;;;;5011151;28;20116;-67
2022/01/04 08:05:37;;;;;;;0.03;0.03;;;10.60;99.90;;;;;;5012408;28;20049;-66
2022/01/04 08:08:04;;;;;;;0.00;0.00;;;10.60;99.90;;;;;;5012350;28;20050;-65
2022/01/04 08:10:29;;;;;;;0.00;0.00;;;10.60;99.90;;;;;;5012438;28;20061;-66
2022/01/04 08:12:55;;;;;;;0.00;0.00;;;10.60;99.90;;;;;;5010991;28;20072;-66
2022/01/04 08:15:23;;;;;;;0.00;0.00;;;10.60;99.90;;;;;;5012146;28;20542;-66
2022/01/04 08:17:49;;;;;;;0.00;0.00;;;10.70;99.90;;;;;;5012435;28;20034;-67
2022/01/04 08:20:17;;;;;;;0.00;0.00;;;10.70;99.90;;;;;;5010938;28;20026;-66
2022/01/04 08:22:43;;;;;;;0.00;0.00;;;10.70;99.90;;;;;;5012404;28;20041;-67
2022/01/04 08:25:10;;;;;;;0.00;0.00;;;10.70;99.90;;;;;;5010620;28;20037;-67
2022/01/04 08:27:37;;;;;;;0.00;0.00;;;10.70;99.90;;;;;;5010588;28;20045;-66
2022/01/04 08:30:07;;;;;;;0.10;0.10;;;10.70;99.90;;;;;;5010574;28;20018;-67
2022/01/04 08:32:34;;;;;;;0.00;0.00;;;10.70;99.90;;;;;;5012047;28;20041;-67
2022/01/04 08:34:59;;;;;;;0.22;0.22;;;10.80;99.90;;;;;;5012032;28;20033;-67
2022/01/04 08:37:26;;;;;;;0.98;0.90;;;10.80;99.90;;;;;;5026888;28;20490;-66
2022/01/04 08:39:53;;;;;;;0.00;0.00;;;10.70;99.90;;;;;;5027226;28;20088;-66
2022/01/04 08:42:22;;;;;;;0.00;0.00;;;10.70;99.90;;;;;;5018339;28;20045;-66
2022/01/04 08:44:49;;;;;;;0.00;0.00;;;10.70;99.90;;;;;;5014489;28;20060;-65
2022/01/04 08:47:15;;;;;;;0.05;0.05;;;10.70;99.90;;;;;;5029882;28;20486;-66
2022/01/04 08:49:41;;;;;;;3.90;0.57;;;10.70;99.90;;;;;;5031436;28;20547;-66
2022/01/04 08:52:07;;;;;;;0.10;0.10;;;10.70;99.90;;;;;;5030172;28;20038;-66
2022/01/04 08:54:35;;;;;;;0.05;0.05;;;10.70;99.90;;;;;;5025599;28;20037;-66
2022/01/04 08:57:01;;;;;;;0.00;0.00;;;10.80;99.90;;;;;;5010822;28;20117;-65
2022/01/04 08:59:28;;;;;;;0.00;0.00;;;10.70;99.90;;;;;;5011881;28;20035;-65
2022/01/04 09:01:56;;;;;;;0.10;0.10;;;10.80;99.90;;;;;;5011935;28;20080;-65
2022/01/04 09:04:22;;;;;;;0.10;0.10;;;10.80;99.90;;;;;;5011631;28;20026;-66
2022/01/04 09:06:49;;;;;;;0.00;0.00;;;10.80;99.90;;;;;;5011305;28;20045;-66
2022/01/04 09:09:15;;;;;;;0.20;0.20;;;10.90;99.90;;;;;;5011729;28;20081;-65
2022/01/04 09:11:41;;;;;;;0.05;0.05;;;10.90;99.90;;;;;;5010509;28;20388;-66
2022/01/04 09:19:23;;;;;;;0.00;0.00;;;11.00;99.90;;;;;;5011725;28;20026;-66
2022/01/04 09:21:49;;;;;;;0.00;0.00;;;11.00;99.90;;;;;;5011420;28;20046;-66
2022/01/04 09:24:15;;;;;;;0.10;0.10;;;11.00;99.90;;;;;;4994108;28;20131;-66
2022/01/04 09:26:41;;;;;;;0.00;0.00;;;11.00;99.90;;;;;;5010427;28;20486;-67
2022/01/04 09:29:07;;;;;;;0.10;0.10;;;11.10;99.90;;;;;;5011567;28;20064;-67
2022/01/04 09:31:33;;;;;;;0.00;0.00;;;11.10;99.90;;;;;;5010134;28;20030;-67
2022/01/04 09:34:01;;;;;;;0.00;0.00;;;11.10;99.90;;;;;;5011864;28;20053;-66
2022/01/04 09:36:34;;;;;;;0.00;0.00;;;11.10;99.90;;;;;;4993759;28;20376;-66
2022/01/04 09:39:03;;;;;;;0.00;0.00;;;11.20;99.90;;;;;;5011418;28;20044;-66
2022/01/04 09:41:29;;;;;;;0.00;0.00;;;11.20;99.90;;;;;;5010046;28;20117;-66
2022/01/04 09:43:55;;;;;;;0.30;0.30;;;11.30;99.90;;;;;;5011269;28;20105;-66
2022/01/04 09:46:21;;;;;;;0.03;0.03;;;11.40;99.90;;;;;;5011142;28;20040;-66
2022/01/04 09:48:47;;;;;;;0.45;0.45;;;11.40;99.90;;;;;;5013047;28;20038;-66
2022/01/04 09:51:15;;;;;;;0.00;0.00;;;11.40;99.90;;;;;;5015005;28;20064;-66
2022/01/04 09:53:41;;;;;;;0.15;0.15;;;11.40;99.90;;;;;;5014725;28;20131;-66
2022/01/04 09:56:08;;;;;;;0.00;0.00;;;11.50;99.90;;;;;;5013554;28;20466;-66
2022/01/04 09:58:34;;;;;;;0.28;0.28;;;11.50;99.90;;;;;;4997623;28;20042;-66
2022/01/04 10:01:00;;;;;;;0.00;0.00;;;11.60;99.90;;;;;;5014964;28;20029;-68
2022/01/04 10:03:30;;;;;;;0.00;0.00;;;11.60;99.90;;;;;;5029667;28;20084;-67
2022/01/04 10:06:16;;;;;;;0.00;0.00;;;11.50;99.90;;;;;;5014546;28;20041;-68
2022/01/04 10:08:50;;;;;;;0.00;0.00;;;11.50;99.90;;;;;;5013374;28;20510;-66
2022/01/04 10:11:16;;;;;;;0.00;0.00;;;11.40;99.90;;;;;;5014653;28;20037;-64
2022/01/04 10:13:42;;;;;;;0.00;0.00;;;11.40;99.90;;;;;;5013110;28;20037;-65
2022/01/04 10:16:16;;;;;;;0.20;0.20;;;11.40;99.90;;;;;;5013304;28;20042;-65
2022/01/04 10:18:47;;;;;;;0.00;0.00;;;11.40;99.90;;;;;;5013323;28;20037;-65
2022/01/04 10:21:16;;;;;;;0.00;0.00;;;11.40;99.90;;;;;;4996701;28;20483;-65
2022/01/04 10:23:48;;;;;;;0.10;0.10;;;11.40;99.90;;;;;;4996647;28;20030;-66
2022/01/04 10:26:14;;;;;;;0.00;0.00;;;11.40;99.90;;;;;;5014331;28;20048;-65
2022/01/04 10:28:45;;;;;;;0.00;0.00;;;11.30;99.90;;;;;;5013090;28;20040;-65
2022/01/04 10:31:16;;;;;;;0.00;0.00;;;11.30;99.90;;;;;;5013008;28;20032;-64
2022/01/04 10:33:43;;;;;;;0.00;0.00;;;11.30;99.90;;;;;;5019179;28;20034;-64
2022/01/04 10:36:11;;;;;;;0.00;0.00;;;11.20;99.90;;;;;;5033965;28;20033;-65
2022/01/04 10:38:48;;;;;;;0.00;0.00;;;10.70;99.90;;;;;;5032681;28;20099;-65
2022/01/04 10:41:21;;;;;;;0.00;0.00;;;10.10;99.90;;;;;;5033514;28;20095;-65
2022/01/04 10:43:53;;;;;;;0.00;0.00;;;9.80;99.90;;;;;;5033836;28;20477;-65
2022/01/04 10:46:41;;;;;;;0.10;0.10;;;9.50;99.90;;;;;;5032622;28;20045;-65
2022/01/04 10:49:18;;;;;;;0.00;0.00;;;9.30;99.90;;;;;;5033600;28;20043;-65
2022/01/04 10:51:47;;;;;;;1.20;0.88;;;9.00;99.90;;;;;;5016274;28;20509;-65
2022/01/04 10:54:19;;;;;;;0.00;0.00;;;8.90;99.90;;;;;;5032150;28;20025;-66
2022/01/04 10:56:46;;;;;;;0.00;0.00;;;8.80;99.90;;;;;;5026389;28;20896;-66
2022/01/04 10:59:13;;;;;;;0.10;0.10;;;8.70;99.90;;;;;;5012226;28;20029;-62
2022/01/04 11:01:44;;;;;;;0.03;0.03;;;8.90;99.90;;;;;;5013759;28;20026;-62
2022/01/04 11:04:19;;;;;;;0.00;0.00;;;9.10;99.90;;;;;;5013693;28;20142;-61
2022/01/04 11:06:48;;;;;;;0.00;0.00;;;9.20;99.90;;;;;;5013548;28;20025;-60
2022/01/04 11:09:15;;;;;;;0.00;0.00;;;9.30;99.90;;;;;;5013548;28;20037;-60
2022/01/04 11:11:42;;;;;;;0.00;0.00;;;9.30;99.90;;;;;;5013529;28;20022;-61
2022/01/04 11:14:11;;;;;;;0.00;0.00;;;9.30;99.90;;;;;;5013637;28;20045;-61
2022/01/04 11:16:37;;;;;;;0.00;0.00;;;9.20;99.90;;;;;;5013789;28;20121;-69
2022/01/04 11:19:03;;;;;;;0.00;0.00;;;9.10;99.90;;;;;;5011943;28;20049;-65
2022/01/04 11:21:37;;;;;;;0.00;0.00;;;9.00;99.90;;;;;;5011751;28;20376;-65
2022/01/04 11:24:06;;;;;;;0.00;0.00;;;8.70;99.90;;;;;;5012387;28;20410;-62
2022/01/04 11:26:33;;;;;;;0.00;0.00;;;8.60;99.90;;;;;;5012939;28;20386;-63
2022/01/04 11:29:00;;;;;;;0.00;0.00;;;8.40;99.90;;;;;;5011722;28;20394;-64
2022/01/04 11:31:56;;;;;;;0.00;0.00;;;8.20;99.90;;;;;;5012743;28;20084;-64
2022/01/04 11:35:12;;;;;;;0.00;0.00;;;8.10;99.90;;;;;;5012940;28;20109;-64
2022/01/04 11:37:41;;;;;;;0.00;0.00;;;8.10;99.90;;;;;;5013137;28;20065;-64
2022/01/04 11:40:31;;;;;;;0.38;0.38;;;8.10;99.90;;;;;;5013111;28;20025;-63
2022/01/04 11:42:57;;;;;;;0.00;0.00;;;8.00;99.90;;;;;;5011692;28;20109;-63
2022/01/04 11:45:46;;;;;;;0.00;0.00;;;8.00;99.90;;;;;;5012740;28;20125;-74
2022/01/04 11:48:33;;;;;;;0.00;0.00;;;7.90;99.90;;;;;;5011670;28;20050;-71
2022/01/04 11:51:09;;;;;;;0.08;0.08;;;7.90;99.90;;;;;;5011453;28;20459;-63
2022/01/04 11:53:36;;;;;;;0.00;0.00;;;7.90;99.90;;;;;;5011646;28;20057;-64
2022/01/04 11:56:09;;;;;;;0.00;0.00;;;7.80;99.90;;;;;;5012960;28;20030;-72
2022/01/04 11:58:54;;;;;;;0.00;0.00;;;7.90;99.90;;;;;;5011198;28;20045;-64
2022/01/04 12:01:27;;;;;;;0.00;0.00;;;7.90;99.90;;;;;;5012645;28;20034;-64
2022/01/04 12:03:53;;;;;;;0.10;0.10;;;7.80;99.90;;;;;;5012277;28;20022;-64
2022/01/04 12:06:33;;;;;;;0.10;0.10;;;7.80;99.90;;;;;;5010924;28;20384;-64
2022/01/04 12:09:00;;;;;;;0.00;0.00;;;7.80;99.90;;;;;;5011262;28;20045;-64
2022/01/04 12:11:26;;;;;;;0.10;0.10;;;7.80;99.90;;;;;;5011569;28;20490;-64
2022/01/04 12:14:01;;;;;;;0.00;0.00;;;7.70;99.90;;;;;;5012312;28;20094;-64
2022/01/04 12:16:36;;;;;;;0.00;0.00;;;7.70;99.90;;;;;;5010993;28;20037;-65
2022/01/04 12:19:07;;;;;;;0.10;0.10;;;7.60;99.90;;;;;;5011922;28;20034;-64
2022/01/04 12:21:48;;;;;;;0.10;0.10;;;7.60;99.90;;;;;;5012273;28;20045;-65
2022/01/04 12:24:24;;;;;;;0.00;0.00;;;7.60;99.90;;;;;;5011069;28;20153;-66
2022/01/04 12:27:08;;;;;;;0.00;0.00;;;7.60;99.90;;;;;;5012285;28;20479;-64
2022/01/04 12:29:34;;;;;;;0.00;0.00;;;7.60;99.90;;;;;;5011923;28;20096;-64
2022/01/04 12:32:04;;;;;;;0.00;0.00;;;7.60;99.90;;;;;;5012055;28;20030;-64
2022/01/04 12:35:03;;;;;;;0.00;0.00;;;7.50;99.90;;;;;;5010417;28;20029;-64
2022/01/04 12:37:34;;;;;;;0.22;0.22;;;7.50;99.90;;;;;;5011158;28;20384;-64
2022/01/04 12:40:00;;;;;;;0.00;0.00;;;7.60;99.90;;;;;;5016539;28;20068;-64
2022/01/04 12:42:26;;;;;;;0.00;0.00;;;7.60;99.90;;;;;;5030272;28;20060;-64
2022/01/04 12:44:56;;;;;;;0.00;0.00;;;7.60;99.90;;;;;;5031409;28;20033;-64
2022/01/04 12:47:23;;;;;;;0.00;0.00;;;7.50;99.90;;;;;;5029845;28;20124;-64
2022/01/04 12:49:49;;;;;;;0.00;0.00;;;7.60;99.90;;;;;;5031231;28;20490;-64
2022/01/04 12:52:17;;;;;;;0.00;0.00;;;7.50;99.90;;;;;;5031304;28;20064;-64
2022/01/04 12:54:44;;;;;;;0.10;0.10;;;7.50;99.90;;;;;;5030054;28;20037;-65
2022/01/04 12:57:15;;;;;;;0.00;0.00;;;7.40;99.90;;;;;;5029934;28;20394;-64
2022/01/04 12:59:47;;;;;;;0.10;0.10;;;7.40;99.90;;;;;;5031124;28;20029;-64
2022/01/04 13:02:16;;;;;;;0.10;0.10;;;7.40;99.90;;;;;;5022679;28;20538;-64